Coronado, California
Current Conditions -  °F | °C
As of 3:52 PM on Monday 20 Oct 2014 (Local Time) from KNZY Reporting Station
Scattered Clouds Scattered Clouds  
Wind Chill: 72°   Ceiling: Unl
Heat Index: 72°   Visibility: 10mi
Dew Point: 61°   Wind: 13mph
Humidity: 68%   Direction: 290°WNW
Pressure: 29.87"   Gusts: NA
Location:  32.68°N, 117.17°W
Report Text: KNZY 202252Z 29011KT 10SM FEW012 SCT020 SCT200 22/16 A2987 RMK AO2 SLP114 T02220161
Loading
Personal Weather Stations






























Interactive Weather Map
Tropical Storm Tracking
New forecast layout! Learn more

10-Day Weather Forecast

Advertisements
Track Severe Weather on mobile